Buoy 41580

sailwx.info

Track history (hours):
 
Tides and Currents Weather Stations Pressure Air Temp Water Temp Dewpoint Dewpoint Depression Visibility Wind Speed Wind Dir Waves Ship Positions

Drifting buoy 41580

Last reported at 2015-May-04 09:00 UTC. Time now 2015-May-04 11:01 UTC.
Position N 15°60' W 043°32'.

Barometer 1017.5 mb
Water temperature 24.9 ° C

Date/timePositionNaut miles runAvg speedWind from/ knotsBaromVisibWave heightAir tempDewpointWater temp
2015-May-04 09:00N 15°60' W 043°32'1 0.4 1017.5 24.9
2015-May-04 06:00N 15°59' W 043°31'0 0.0 1016.8 24.9
2015-May-04 05:00N 15°59' W 043°31'2 0.4 1016.9 24.9
2015-May-04 00:00N 15°58' W 043°30'2 2.0 1018.1 24.9
2015-May-03 23:00N 15°57' W 043°28'1 0.2 1017.7 24.9
2015-May-03 20:00N 15°57' W 043°27'1 0.3 1016.1 25.0
2015-May-03 16:00N 15°58' W 043°26'0 0.0 1017.2 24.9
2015-May-03 15:00N 15°58' W 043°26'1 0.3 1017.9 24.9
2015-May-03 12:00N 15°58' W 043°25'2 0.6 1018.2 24.8
2015-May-03 09:00N 15°58' W 043°23'0 0.0 1016.7 24.8
2015-May-03 08:00N 15°58' W 043°23'0 0.2 1016.0 24.8
2015-May-03 06:00N 15°58' W 043°23'1 0.2 1015.5 24.8
2015-May-03 01:00N 15°57' W 043°23'1 1.1 1017.4 24.9
2015-May-03 00:00N 15°56' W 043°22'2 0.3 1016.9 24.9
2015-May-02 19:00N 15°55' W 043°22'1 0.5 1014.2 25.0
2015-May-02 17:00N 15°55' W 043°21'1 0.8 1015.0 25.0
2015-May-02 16:00N 15°55' W 043°20'0 0.0 1015.8 25.0
2015-May-02 13:00N 15°55' W 043°20'1 1.4 1017.5 24.8
2015-May-02 12:00N 15°54' W 043°20'2 0.5 1017.6 24.8
2015-May-02 08:00N 15°54' W 043°18'2 0.4 1015.9 24.8
2015-May-02 04:00N 15°54' W 043°19'3 0.5 1016.1 24.9
2015-May-01 23:00N 15°54' W 043°16'0 0.5 1016.1 24.9
2015-May-01 22:00N 15°55' W 043°17'4 0.2 1015.4 25.0
2015-May-01 05:00N 15°53' W 043°12'0 0.0 1016.3 24.7
2015-May-01 04:00N 15°53' W 043°12'2 0.2 1017.0 24.7
2015-Apr-30 20:00N 15°52' W 043°11'3 0.6 1015.3 24.9
2015-Apr-30 16:00N 15°53' W 043°09'0 0.1 1016.8 24.9
2015-Apr-30 13:00N 15°53' W 043°09'0 0.4 1018.3 24.8
2015-Apr-30 12:00N 15°53' W 043°09'0 0.0 1018.0 24.8
2015-Apr-30 11:00N 15°53' W 043°09'0 0.1 1017.5 24.8
2015-Apr-30 09:00N 15°53' W 043°09'1 1.1 1016.0 24.7
2015-Apr-30 08:00N 15°52' W 043°08'0 0.3 1015.6 24.7
2015-Apr-30 07:00N 15°52' W 043°08'1 0.7 1015.4 24.7
2015-Apr-30 05:00N 15°51' W 043°06'0 0.0 1015.6 24.8
2015-Apr-30 04:00N 15°51' W 043°06'2 0.6 1016.3 24.8
2015-Apr-30 01:00N 15°53' W 043°06'1 0.2 1017.7 24.8
2015-Apr-29 21:00N 15°53' W 043°05'5 0.3 1016.6 24.9
2015-Apr-29 08:00N 15°53' W 043°01'0 0.0 1016.2 24.8
2015-Apr-29 07:00N 15°53' W 043°01'2 0.6 1015.7 24.8
2015-Apr-29 03:00N 15°54' W 042°59'1 0.4 1017.3 24.8
2015-Apr-29 00:00N 15°54' W 042°58'0 0.5 1017.7 24.8
2015-Apr-28 23:00N 15°55' W 042°57'0 0.2 1017.2 24.8
2015-Apr-28 22:00N 15°55' W 042°57'4 0.7 1016.8 24.9
2015-Apr-28 17:00N 15°54' W 042°53'3 0.4 1016.0 25.0
2015-Apr-28 10:00N 15°56' W 042°52'2 0.3 1017.4 24.8
2015-Apr-28 05:00N 15°55' W 042°51'2 1.7 1016.2 24.8
2015-Apr-28 04:00N 15°54' W 042°49'2 0.5 1016.3 24.8
2015-Apr-28 00:00N 15°55' W 042°47'1 0.4 1017.6 24.8
2015-Apr-27 20:00N 15°55' W 042°46'2 1.8 1016.3 25.0
2015-Apr-27 19:00N 15°53' W 042°45'5 0.7 1016.0 25.0
2015-Apr-27 12:00N 15°52' W 042°40'0 0.0 1018.1 24.8
2015-Apr-27 07:00N 15°52' W 042°40'0 0.0 1016.1 24.7
2015-Apr-27 06:00N 15°52' W 042°40'1 0.5 1016.1 24.7
2015-Apr-27 04:00N 15°51' W 042°40'10 0.5 1017.1 24.8
2015-Apr-26 09:00N 15°45' W 042°32'0 0.1 1017.8 24.7
2015-Apr-26 07:00N 15°45' W 042°33'1 0.9 1016.9 24.7
2015-Apr-26 06:00N 15°44' W 042°33'0 0.0 1016.7 24.7
2015-Apr-26 05:00N 15°44' W 042°33'3 0.7 1017.2 24.7
2015-Apr-26 01:00N 15°41' W 042°33'2 0.8 1018.7 24.8
2015-Apr-25 23:00N 15°39' W 042°33'2 0.2 1018.5 24.8
2015-Apr-25 13:00N 15°37' W 042°32'0 0.5 1020.1 24.7
2015-Apr-25 12:00N 15°37' W 042°33'0 0.2 1020.3 24.7
2015-Apr-25 09:00N 15°37' W 042°33'0 0.5 1018.7 24.7
2015-Apr-25 08:00N 15°37' W 042°33'1 0.5 1017.9 24.7
2015-Apr-25 06:00N 15°36' W 042°33'1 0.6 1017.0 24.7
2015-Apr-25 05:00N 15°36' W 042°33'4 0.3 1017.4 24.7
2015-Apr-24 16:00N 15°32' W 042°34'0 0.4 1017.9 24.9
2015-Apr-24 15:00N 15°32' W 042°34'   1018.8 24.8
Track history (hours):
 
Tides and Currents Weather Stations Pressure Air Temp Water Temp Dewpoint Dewpoint Depression Visibility Wind Speed Wind Dir Waves Ship Positions

Drifting buoy 41580

Last reported at 2015-May-04 09:00 UTC. Time now 2015-May-04 11:01 UTC.
Position N 15°60' W 043°32'.

Barometer 1017.5 mb
Water temperature 24.9 ° C

Date/timePositionNaut miles runAvg speedWind from/ knotsBaromVisibWave heightAir tempDewpointWater temp
2015-May-04 09:00N 15°60' W 043°32'1 0.4 1017.5 24.9
2015-May-04 06:00N 15°59' W 043°31'0 0.0 1016.8 24.9
2015-May-04 05:00N 15°59' W 043°31'2 0.4 1016.9 24.9
2015-May-04 00:00N 15°58' W 043°30'2 2.0 1018.1 24.9
2015-May-03 23:00N 15°57' W 043°28'1 0.2 1017.7 24.9
2015-May-03 20:00N 15°57' W 043°27'1 0.3 1016.1 25.0
2015-May-03 16:00N 15°58' W 043°26'0 0.0 1017.2 24.9
2015-May-03 15:00N 15°58' W 043°26'1 0.3 1017.9 24.9
2015-May-03 12:00N 15°58' W 043°25'2 0.6 1018.2 24.8
2015-May-03 09:00N 15°58' W 043°23'0 0.0 1016.7 24.8
2015-May-03 08:00N 15°58' W 043°23'0 0.2 1016.0 24.8
2015-May-03 06:00N 15°58' W 043°23'1 0.2 1015.5 24.8
2015-May-03 01:00N 15°57' W 043°23'1 1.1 1017.4 24.9
2015-May-03 00:00N 15°56' W 043°22'2 0.3 1016.9 24.9
2015-May-02 19:00N 15°55' W 043°22'1 0.5 1014.2 25.0
2015-May-02 17:00N 15°55' W 043°21'1 0.8 1015.0 25.0
2015-May-02 16:00N 15°55' W 043°20'0 0.0 1015.8 25.0
2015-May-02 13:00N 15°55' W 043°20'1 1.4 1017.5 24.8
2015-May-02 12:00N 15°54' W 043°20'2 0.5 1017.6 24.8
2015-May-02 08:00N 15°54' W 043°18'2 0.4 1015.9 24.8
2015-May-02 04:00N 15°54' W 043°19'3 0.5 1016.1 24.9
2015-May-01 23:00N 15°54' W 043°16'0 0.5 1016.1 24.9
2015-May-01 22:00N 15°55' W 043°17'4 0.2 1015.4 25.0
2015-May-01 05:00N 15°53' W 043°12'0 0.0 1016.3 24.7
2015-May-01 04:00N 15°53' W 043°12'2 0.2 1017.0 24.7
2015-Apr-30 20:00N 15°52' W 043°11'3 0.6 1015.3 24.9
2015-Apr-30 16:00N 15°53' W 043°09'0 0.1 1016.8 24.9
2015-Apr-30 13:00N 15°53' W 043°09'0 0.4 1018.3 24.8
2015-Apr-30 12:00N 15°53' W 043°09'0 0.0 1018.0 24.8
2015-Apr-30 11:00N 15°53' W 043°09'0 0.1 1017.5 24.8
2015-Apr-30 09:00N 15°53' W 043°09'1 1.1 1016.0 24.7
2015-Apr-30 08:00N 15°52' W 043°08'0 0.3 1015.6 24.7
2015-Apr-30 07:00N 15°52' W 043°08'1 0.7 1015.4 24.7
2015-Apr-30 05:00N 15°51' W 043°06'0 0.0 1015.6 24.8
2015-Apr-30 04:00N 15°51' W 043°06'2 0.6 1016.3 24.8
2015-Apr-30 01:00N 15°53' W 043°06'1 0.2 1017.7 24.8
2015-Apr-29 21:00N 15°53' W 043°05'5 0.3 1016.6 24.9
2015-Apr-29 08:00N 15°53' W 043°01'0 0.0 1016.2 24.8
2015-Apr-29 07:00N 15°53' W 043°01'2 0.6 1015.7 24.8
2015-Apr-29 03:00N 15°54' W 042°59'1 0.4 1017.3 24.8
2015-Apr-29 00:00N 15°54' W 042°58'0 0.5 1017.7 24.8
2015-Apr-28 23:00N 15°55' W 042°57'0 0.2 1017.2 24.8
2015-Apr-28 22:00N 15°55' W 042°57'4 0.7 1016.8 24.9
2015-Apr-28 17:00N 15°54' W 042°53'3 0.4 1016.0 25.0
2015-Apr-28 10:00N 15°56' W 042°52'2 0.3 1017.4 24.8
2015-Apr-28 05:00N 15°55' W 042°51'2 1.7 1016.2 24.8
2015-Apr-28 04:00N 15°54' W 042°49'2 0.5 1016.3 24.8
2015-Apr-28 00:00N 15°55' W 042°47'1 0.4 1017.6 24.8
2015-Apr-27 20:00N 15°55' W 042°46'2 1.8 1016.3 25.0
2015-Apr-27 19:00N 15°53' W 042°45'5 0.7 1016.0 25.0
2015-Apr-27 12:00N 15°52' W 042°40'0 0.0 1018.1 24.8
2015-Apr-27 07:00N 15°52' W 042°40'0 0.0 1016.1 24.7
2015-Apr-27 06:00N 15°52' W 042°40'1 0.5 1016.1 24.7
2015-Apr-27 04:00N 15°51' W 042°40'10 0.5 1017.1 24.8
2015-Apr-26 09:00N 15°45' W 042°32'0 0.1 1017.8 24.7
2015-Apr-26 07:00N 15°45' W 042°33'1 0.9 1016.9 24.7
2015-Apr-26 06:00N 15°44' W 042°33'0 0.0 1016.7 24.7
2015-Apr-26 05:00N 15°44' W 042°33'3 0.7 1017.2 24.7
2015-Apr-26 01:00N 15°41' W 042°33'2 0.8 1018.7 24.8
2015-Apr-25 23:00N 15°39' W 042°33'2 0.2 1018.5 24.8
2015-Apr-25 13:00N 15°37' W 042°32'0 0.5 1020.1 24.7
2015-Apr-25 12:00N 15°37' W 042°33'0 0.2 1020.3 24.7
2015-Apr-25 09:00N 15°37' W 042°33'0 0.5 1018.7 24.7
2015-Apr-25 08:00N 15°37' W 042°33'1 0.5 1017.9 24.7
2015-Apr-25 06:00N 15°36' W 042°33'1 0.6 1017.0 24.7
2015-Apr-25 05:00N 15°36' W 042°33'4 0.3 1017.4 24.7
2015-Apr-24 16:00N 15°32' W 042°34'0 0.4 1017.9 24.9
2015-Apr-24 15:00N 15°32' W 042°34'   1018.8 24.8

Dump ship's entire track history